Terminal Aerodrome Forecast
Issued by NWS

Home | Current Version | Previous Version | Text Only | Print | Product List | Glossary On
Versions: 1 2 3 4 5 6 7 8 9 10 11 12 13 14 15 16 17 18
000
FTUS43 KFGF 281400 AAA
TAFDVL
TAF AMD
KDVL 281409Z 2814/2912 17012KT P6SM BKN008 OVC022
     FM281530 17014G22KT P6SM BKN025
     FM281700 18022G30KT P6SM BKN120
     FM290300 20015G24KT P6SM -SHRA BKN050
     FM290700 32022G30KT P6SM VCSH OVC015
      AMD LTD TO CLD VIS AND WIND=

USA.gov is the U.S. government's official web portal to all federal, state and local government web resources and services.